sensor_id;sensor_type;location;lat;lon;timestamp;P1;durP1;ratioP1;P2;durP2;ratioP2
14876;SDS011;22152;48.158;17.118;2023-02-15T00:01:46;64.53;;;26.88;;
14876;SDS011;22152;48.158;17.118;2023-02-15T00:04:14;53.45;;;26.85;;
14876;SDS011;22152;48.158;17.118;2023-02-15T00:06:42;55.65;;;25.48;;
14876;SDS011;22152;48.158;17.118;2023-02-15T00:09:09;55.70;;;27.63;;
14876;SDS011;22152;48.158;17.118;2023-02-15T00:11:36;61.00;;;28.67;;
14876;SDS011;22152;48.158;17.118;2023-02-15T00:16:54;51.83;;;27.13;;
14876;SDS011;22152;48.158;17.118;2023-02-15T00:19:20;59.33;;;26.73;;
14876;SDS011;22152;48.158;17.118;2023-02-15T00:21:47;55.13;;;27.30;;
14876;SDS011;22152;48.158;17.118;2023-02-15T00:24:14;56.08;;;26.98;;
14876;SDS011;22152;48.158;17.118;2023-02-15T00:26:43;61.28;;;29.70;;
14876;SDS011;22152;48.158;17.118;2023-02-15T00:29:10;53.85;;;25.33;;
14876;SDS011;22152;48.158;17.118;2023-02-15T00:31:38;54.35;;;28.38;;
14876;SDS011;22152;48.158;17.118;2023-02-15T00:34:05;57.15;;;27.00;;
14876;SDS011;22152;48.158;17.118;2023-02-15T00:36:40;59.20;;;28.17;;
14876;SDS011;22152;48.158;17.118;2023-02-15T00:39:07;54.17;;;27.65;;
14876;SDS011;22152;48.158;17.118;2023-02-15T00:41:34;57.28;;;28.13;;
14876;SDS011;22152;48.158;17.118;2023-02-15T00:44:01;57.70;;;28.13;;
14876;SDS011;22152;48.158;17.118;2023-02-15T00:46:28;53.63;;;26.35;;
14876;SDS011;22152;48.158;17.118;2023-02-15T00:48:54;58.67;;;28.50;;
14876;SDS011;22152;48.158;17.118;2023-02-15T00:51:20;49.28;;;25.02;;
14876;SDS011;22152;48.158;17.118;2023-02-15T00:53:46;53.53;;;25.33;;
14876;SDS011;22152;48.158;17.118;2023-02-15T00:56:13;56.60;;;27.05;;
14876;SDS011;22152;48.158;17.118;2023-02-15T00:58:39;51.10;;;25.55;;
14876;SDS011;22152;48.158;17.118;2023-02-15T01:01:11;59.55;;;26.10;;
14876;SDS011;22152;48.158;17.118;2023-02-15T01:03:40;62.78;;;27.35;;
14876;SDS011;22152;48.158;17.118;2023-02-15T01:06:08;55.08;;;26.27;;
14876;SDS011;22152;48.158;17.118;2023-02-15T01:08:39;49.70;;;27.27;;
14876;SDS011;22152;48.158;17.118;2023-02-15T01:11:08;55.40;;;27.17;;
14876;SDS011;22152;48.158;17.118;2023-02-15T01:16:06;56.90;;;24.83;;
14876;SDS011;22152;48.158;17.118;2023-02-15T01:18:33;55.40;;;27.20;;
14876;SDS011;22152;48.158;17.118;2023-02-15T01:20:59;59.15;;;26.50;;
14876;SDS011;22152;48.158;17.118;2023-02-15T01:23:25;51.28;;;25.98;;
14876;SDS011;22152;48.158;17.118;2023-02-15T01:25:51;56.33;;;27.50;;
14876;SDS011;22152;48.158;17.118;2023-02-15T01:28:17;70.80;;;27.45;;
14876;SDS011;22152;48.158;17.118;2023-02-15T01:30:43;54.92;;;27.52;;
14876;SDS011;22152;48.158;17.118;2023-02-15T01:33:09;53.25;;;25.65;;
14876;SDS011;22152;48.158;17.118;2023-02-15T01:35:42;53.08;;;25.63;;
14876;SDS011;22152;48.158;17.118;2023-02-15T01:38:12;58.42;;;26.65;;
14876;SDS011;22152;48.158;17.118;2023-02-15T01:40:39;50.20;;;23.27;;
14876;SDS011;22152;48.158;17.118;2023-02-15T01:43:09;51.70;;;25.90;;
14876;SDS011;22152;48.158;17.118;2023-02-15T01:45:37;54.67;;;26.02;;
14876;SDS011;22152;48.158;17.118;2023-02-15T01:48:05;52.97;;;26.77;;
14876;SDS011;22152;48.158;17.118;2023-02-15T01:50:47;56.55;;;25.75;;
14876;SDS011;22152;48.158;17.118;2023-02-15T01:53:40;57.90;;;24.50;;
14876;SDS011;22152;48.158;17.118;2023-02-15T01:56:18;49.38;;;24.08;;
14876;SDS011;22152;48.158;17.118;2023-02-15T01:58:49;53.05;;;24.23;;
14876;SDS011;22152;48.158;17.118;2023-02-15T02:01:18;51.08;;;23.83;;
14876;SDS011;22152;48.158;17.118;2023-02-15T02:03:59;54.35;;;24.55;;
14876;SDS011;22152;48.158;17.118;2023-02-15T02:06:37;55.70;;;25.07;;
14876;SDS011;22152;48.158;17.118;2023-02-15T02:09:05;48.70;;;23.50;;
14876;SDS011;22152;48.158;17.118;2023-02-15T02:11:31;54.35;;;23.88;;
14876;SDS011;22152;48.158;17.118;2023-02-15T02:13:58;56.08;;;25.75;;
14876;SDS011;22152;48.158;17.118;2023-02-15T02:19:10;52.45;;;23.67;;
14876;SDS011;22152;48.158;17.118;2023-02-15T02:25:17;50.97;;;21.73;;
14876;SDS011;22152;48.158;17.118;2023-02-15T02:45:08;64.97;;;27.88;;
14876;SDS011;22152;48.158;17.118;2023-02-15T02:47:47;66.07;;;27.45;;
14876;SDS011;22152;48.158;17.118;2023-02-15T02:50:22;66.93;;;27.75;;
14876;SDS011;22152;48.158;17.118;2023-02-15T02:52:53;62.28;;;27.08;;
14876;SDS011;22152;48.158;17.118;2023-02-15T02:55:37;69.60;;;27.63;;
14876;SDS011;22152;48.158;17.118;2023-02-15T02:58:22;66.18;;;26.83;;
14876;SDS011;22152;48.158;17.118;2023-02-15T03:01:08;63.85;;;26.83;;
14876;SDS011;22152;48.158;17.118;2023-02-15T03:06:50;68.25;;;27.80;;
14876;SDS011;22152;48.158;17.118;2023-02-15T03:09:29;66.78;;;26.50;;
14876;SDS011;22152;48.158;17.118;2023-02-15T03:14:51;69.00;;;28.35;;
14876;SDS011;22152;48.158;17.118;2023-02-15T03:17:41;81.05;;;28.95;;
14876;SDS011;22152;48.158;17.118;2023-02-15T03:20:27;72.25;;;29.75;;
14876;SDS011;22152;48.158;17.118;2023-02-15T03:23:01;74.15;;;29.05;;
14876;SDS011;22152;48.158;17.118;2023-02-15T03:25:50;71.35;;;29.55;;
14876;SDS011;22152;48.158;17.118;2023-02-15T03:28:32;68.55;;;28.55;;
14876;SDS011;22152;48.158;17.118;2023-02-15T03:31:09;72.55;;;28.45;;
14876;SDS011;22152;48.158;17.118;2023-02-15T03:33:38;68.63;;;27.73;;
14876;SDS011;22152;48.158;17.118;2023-02-15T03:38:51;60.55;;;26.92;;
14876;SDS011;22152;48.158;17.118;2023-02-15T03:41:38;60.67;;;25.40;;
14876;SDS011;22152;48.158;17.118;2023-02-15T03:44:14;70.70;;;28.33;;
14876;SDS011;22152;48.158;17.118;2023-02-15T03:46:54;62.47;;;28.13;;
14876;SDS011;22152;48.158;17.118;2023-02-15T03:49:36;69.57;;;27.90;;
14876;SDS011;22152;48.158;17.118;2023-02-15T03:52:10;66.88;;;27.15;;
14876;SDS011;22152;48.158;17.118;2023-02-15T03:54:39;65.88;;;27.65;;
14876;SDS011;22152;48.158;17.118;2023-02-15T03:57:11;67.82;;;29.10;;
14876;SDS011;22152;48.158;17.118;2023-02-15T04:00:09;69.13;;;25.98;;
14876;SDS011;22152;48.158;17.118;2023-02-15T04:03:09;81.13;;;27.65;;
14876;SDS011;22152;48.158;17.118;2023-02-15T04:05:48;68.13;;;27.92;;
14876;SDS011;22152;48.158;17.118;2023-02-15T04:08:14;67.18;;;27.23;;
14876;SDS011;22152;48.158;17.118;2023-02-15T04:10:40;68.82;;;28.63;;
14876;SDS011;22152;48.158;17.118;2023-02-15T04:13:23;65.60;;;26.73;;
14876;SDS011;22152;48.158;17.118;2023-02-15T04:15:56;72.68;;;30.77;;
14876;SDS011;22152;48.158;17.118;2023-02-15T04:18:29;84.82;;;28.58;;
14876;SDS011;22152;48.158;17.118;2023-02-15T04:21:17;86.25;;;30.20;;
14876;SDS011;22152;48.158;17.118;2023-02-15T04:24:03;77.38;;;29.70;;
14876;SDS011;22152;48.158;17.118;2023-02-15T04:26:48;84.63;;;30.55;;
14876;SDS011;22152;48.158;17.118;2023-02-15T04:29:18;75.70;;;29.13;;
14876;SDS011;22152;48.158;17.118;2023-02-15T04:31:45;77.05;;;29.58;;
14876;SDS011;22152;48.158;17.118;2023-02-15T04:34:12;67.85;;;28.85;;
14876;SDS011;22152;48.158;17.118;2023-02-15T04:36:38;73.18;;;30.40;;
14876;SDS011;22152;48.158;17.118;2023-02-15T04:39:05;77.45;;;32.33;;
14876;SDS011;22152;48.158;17.118;2023-02-15T04:41:32;75.25;;;29.98;;
14876;SDS011;22152;48.158;17.118;2023-02-15T04:43:58;73.00;;;30.85;;
14876;SDS011;22152;48.158;17.118;2023-02-15T04:46:26;75.60;;;29.63;;
14876;SDS011;22152;48.158;17.118;2023-02-15T04:48:53;73.65;;;31.15;;
14876;SDS011;22152;48.158;17.118;2023-02-15T04:51:19;88.85;;;32.63;;
14876;SDS011;22152;48.158;17.118;2023-02-15T04:53:45;81.68;;;30.00;;
14876;SDS011;22152;48.158;17.118;2023-02-15T04:56:11;80.82;;;31.17;;
14876;SDS011;22152;48.158;17.118;2023-02-15T04:58:37;90.57;;;33.42;;
14876;SDS011;22152;48.158;17.118;2023-02-15T05:01:08;79.68;;;32.53;;
14876;SDS011;22152;48.158;17.118;2023-02-15T05:03:35;86.43;;;34.17;;
14876;SDS011;22152;48.158;17.118;2023-02-15T05:06:01;80.35;;;32.28;;
14876;SDS011;22152;48.158;17.118;2023-02-15T05:08:28;85.47;;;31.13;;
14876;SDS011;22152;48.158;17.118;2023-02-15T05:10:54;78.85;;;31.63;;
14876;SDS011;22152;48.158;17.118;2023-02-15T05:13:19;79.32;;;33.00;;
14876;SDS011;22152;48.158;17.118;2023-02-15T05:15:49;81.45;;;32.30;;
14876;SDS011;22152;48.158;17.118;2023-02-15T05:18:17;82.85;;;31.42;;
14876;SDS011;22152;48.158;17.118;2023-02-15T05:20:45;99.18;;;32.58;;
14876;SDS011;22152;48.158;17.118;2023-02-15T05:23:11;88.95;;;32.88;;
14876;SDS011;22152;48.158;17.118;2023-02-15T05:25:36;86.97;;;32.90;;
14876;SDS011;22152;48.158;17.118;2023-02-15T05:28:21;80.18;;;31.48;;
14876;SDS011;22152;48.158;17.118;2023-02-15T05:30:59;82.35;;;32.70;;
14876;SDS011;22152;48.158;17.118;2023-02-15T05:35:58;77.85;;;30.52;;
14876;SDS011;22152;48.158;17.118;2023-02-15T05:38:25;91.55;;;33.42;;
14876;SDS011;22152;48.158;17.118;2023-02-15T05:40:51;112.80;;;33.20;;
14876;SDS011;22152;48.158;17.118;2023-02-15T05:43:18;83.15;;;30.73;;
14876;SDS011;22152;48.158;17.118;2023-02-15T05:45:47;85.97;;;33.53;;
14876;SDS011;22152;48.158;17.118;2023-02-15T05:48:16;209.38;;;76.28;;
14876;SDS011;22152;48.158;17.118;2023-02-15T05:50:43;263.20;;;93.90;;
14876;SDS011;22152;48.158;17.118;2023-02-15T05:53:10;449.65;;;158.52;;
14876;SDS011;22152;48.158;17.118;2023-02-15T05:55:39;408.90;;;141.30;;
14876;SDS011;22152;48.158;17.118;2023-02-15T05:58:06;402.13;;;151.60;;
14876;SDS011;22152;48.158;17.118;2023-02-15T06:00:33;128.18;;;49.63;;
14876;SDS011;22152;48.158;17.118;2023-02-15T06:02:59;286.55;;;90.47;;
14876;SDS011;22152;48.158;17.118;2023-02-15T06:05:25;174.43;;;56.78;;
14876;SDS011;22152;48.158;17.118;2023-02-15T06:07:51;161.35;;;52.53;;
14876;SDS011;22152;48.158;17.118;2023-02-15T06:10:17;139.95;;;45.80;;
14876;SDS011;22152;48.158;17.118;2023-02-15T06:12:43;132.90;;;48.75;;
14876;SDS011;22152;48.158;17.118;2023-02-15T06:15:10;114.05;;;41.17;;
14876;SDS011;22152;48.158;17.118;2023-02-15T06:17:35;221.70;;;66.10;;
14876;SDS011;22152;48.158;17.118;2023-02-15T06:20:01;253.68;;;73.40;;
14876;SDS011;22152;48.158;17.118;2023-02-15T06:22:28;114.50;;;41.60;;
14876;SDS011;22152;48.158;17.118;2023-02-15T06:24:54;82.90;;;32.83;;
14876;SDS011;22152;48.158;17.118;2023-02-15T06:27:20;80.30;;;30.42;;
14876;SDS011;22152;48.158;17.118;2023-02-15T06:29:46;85.38;;;32.60;;
14876;SDS011;22152;48.158;17.118;2023-02-15T06:32:12;82.53;;;31.73;;
14876;SDS011;22152;48.158;17.118;2023-02-15T06:34:37;90.78;;;32.47;;
14876;SDS011;22152;48.158;17.118;2023-02-15T06:37:03;129.48;;;49.22;;
14876;SDS011;22152;48.158;17.118;2023-02-15T06:39:29;111.85;;;39.53;;
14876;SDS011;22152;48.158;17.118;2023-02-15T06:41:55;91.80;;;34.80;;
14876;SDS011;22152;48.158;17.118;2023-02-15T06:44:21;89.47;;;34.65;;
14876;SDS011;22152;48.158;17.118;2023-02-15T06:46:46;83.18;;;34.83;;
14876;SDS011;22152;48.158;17.118;2023-02-15T06:49:12;78.10;;;32.20;;
14876;SDS011;22152;48.158;17.118;2023-02-15T06:51:38;72.50;;;31.25;;
14876;SDS011;22152;48.158;17.118;2023-02-15T06:54:04;68.05;;;30.23;;
14876;SDS011;22152;48.158;17.118;2023-02-15T06:56:30;71.80;;;32.38;;
14876;SDS011;22152;48.158;17.118;2023-02-15T06:58:55;68.47;;;30.15;;
14876;SDS011;22152;48.158;17.118;2023-02-15T07:01:21;68.38;;;30.20;;
14876;SDS011;22152;48.158;17.118;2023-02-15T07:03:47;61.13;;;28.20;;
14876;SDS011;22152;48.158;17.118;2023-02-15T07:06:13;65.75;;;29.08;;
14876;SDS011;22152;48.158;17.118;2023-02-15T07:08:39;69.63;;;31.55;;
14876;SDS011;22152;48.158;17.118;2023-02-15T07:11:05;68.03;;;31.35;;
14876;SDS011;22152;48.158;17.118;2023-02-15T07:13:50;61.65;;;28.42;;
14876;SDS011;22152;48.158;17.118;2023-02-15T07:16:17;63.63;;;27.75;;
14876;SDS011;22152;48.158;17.118;2023-02-15T07:18:44;67.05;;;29.13;;
14876;SDS011;22152;48.158;17.118;2023-02-15T07:21:10;62.22;;;29.42;;
14876;SDS011;22152;48.158;17.118;2023-02-15T07:23:36;59.78;;;27.77;;
14876;SDS011;22152;48.158;17.118;2023-02-15T07:26:04;57.65;;;27.92;;
14876;SDS011;22152;48.158;17.118;2023-02-15T07:28:32;68.70;;;32.63;;
14876;SDS011;22152;48.158;17.118;2023-02-15T07:31:02;70.03;;;34.58;;
14876;SDS011;22152;48.158;17.118;2023-02-15T07:33:32;66.55;;;32.72;;
14876;SDS011;22152;48.158;17.118;2023-02-15T07:36:00;68.45;;;34.47;;
14876;SDS011;22152;48.158;17.118;2023-02-15T07:38:35;70.10;;;34.65;;
14876;SDS011;22152;48.158;17.118;2023-02-15T07:41:06;63.95;;;34.13;;
14876;SDS011;22152;48.158;17.118;2023-02-15T07:43:36;64.38;;;32.03;;
14876;SDS011;22152;48.158;17.118;2023-02-15T07:46:05;65.72;;;30.02;;
14876;SDS011;22152;48.158;17.118;2023-02-15T07:48:35;53.50;;;29.83;;
14876;SDS011;22152;48.158;17.118;2023-02-15T07:51:02;57.30;;;28.42;;
14876;SDS011;22152;48.158;17.118;2023-02-15T07:53:30;54.40;;;28.92;;
14876;SDS011;22152;48.158;17.118;2023-02-15T07:56:01;65.05;;;32.58;;
14876;SDS011;22152;48.158;17.118;2023-02-15T07:58:33;65.90;;;34.72;;
14876;SDS011;22152;48.158;17.118;2023-02-15T08:03:53;67.82;;;36.55;;
14876;SDS011;22152;48.158;17.118;2023-02-15T08:06:20;76.57;;;39.13;;
14876;SDS011;22152;48.158;17.118;2023-02-15T08:08:54;62.00;;;35.08;;
14876;SDS011;22152;48.158;17.118;2023-02-15T08:11:24;67.43;;;37.13;;
14876;SDS011;22152;48.158;17.118;2023-02-15T08:13:59;67.68;;;36.85;;
14876;SDS011;22152;48.158;17.118;2023-02-15T08:16:37;64.78;;;35.78;;
14876;SDS011;22152;48.158;17.118;2023-02-15T08:19:12;60.45;;;33.35;;
14876;SDS011;22152;48.158;17.118;2023-02-15T08:21:43;59.25;;;32.58;;
14876;SDS011;22152;48.158;17.118;2023-02-15T08:24:15;52.60;;;32.92;;
14876;SDS011;22152;48.158;17.118;2023-02-15T08:26:43;53.25;;;32.00;;
14876;SDS011;22152;48.158;17.118;2023-02-15T08:29:13;55.88;;;34.20;;
14876;SDS011;22152;48.158;17.118;2023-02-15T08:31:41;55.17;;;32.63;;
14876;SDS011;22152;48.158;17.118;2023-02-15T08:34:08;57.88;;;34.28;;
14876;SDS011;22152;48.158;17.118;2023-02-15T08:36:36;57.38;;;31.83;;
14876;SDS011;22152;48.158;17.118;2023-02-15T08:39:03;57.38;;;34.65;;
14876;SDS011;22152;48.158;17.118;2023-02-15T08:41:31;55.10;;;33.80;;
14876;SDS011;22152;48.158;17.118;2023-02-15T08:44:00;57.83;;;35.47;;
14876;SDS011;22152;48.158;17.118;2023-02-15T08:46:31;56.65;;;32.92;;
14876;SDS011;22152;48.158;17.118;2023-02-15T08:49:00;57.47;;;33.60;;
14876;SDS011;22152;48.158;17.118;2023-02-15T08:51:27;50.47;;;30.55;;
14876;SDS011;22152;48.158;17.118;2023-02-15T08:53:56;55.15;;;33.33;;
14876;SDS011;22152;48.158;17.118;2023-02-15T08:56:25;52.50;;;31.35;;
14876;SDS011;22152;48.158;17.118;2023-02-15T09:01:25;51.10;;;31.40;;
14876;SDS011;22152;48.158;17.118;2023-02-15T09:03:58;54.72;;;31.38;;
14876;SDS011;22152;48.158;17.118;2023-02-15T09:06:27;52.25;;;32.22;;
14876;SDS011;22152;48.158;17.118;2023-02-15T09:08:54;55.45;;;33.40;;
14876;SDS011;22152;48.158;17.118;2023-02-15T09:11:25;61.40;;;32.65;;
14876;SDS011;22152;48.158;17.118;2023-02-15T09:14:00;54.95;;;31.30;;
14876;SDS011;22152;48.158;17.118;2023-02-15T09:16:33;47.65;;;30.15;;
14876;SDS011;22152;48.158;17.118;2023-02-15T09:19:02;51.63;;;31.77;;
14876;SDS011;22152;48.158;17.118;2023-02-15T09:21:33;54.92;;;34.17;;
14876;SDS011;22152;48.158;17.118;2023-02-15T09:24:03;61.83;;;33.25;;
14876;SDS011;22152;48.158;17.118;2023-02-15T09:26:33;53.65;;;33.35;;
14876;SDS011;22152;48.158;17.118;2023-02-15T09:29:02;58.92;;;33.63;;
14876;SDS011;22152;48.158;17.118;2023-02-15T09:31:30;61.80;;;34.70;;
14876;SDS011;22152;48.158;17.118;2023-02-15T09:33:59;61.20;;;35.97;;
14876;SDS011;22152;48.158;17.118;2023-02-15T09:36:32;68.43;;;38.30;;
14876;SDS011;22152;48.158;17.118;2023-02-15T09:39:03;68.43;;;37.45;;
14876;SDS011;22152;48.158;17.118;2023-02-15T09:42:02;65.20;;;37.95;;
14876;SDS011;22152;48.158;17.118;2023-02-15T09:50:34;73.07;;;38.88;;
14876;SDS011;22152;48.158;17.118;2023-02-15T09:53:45;70.85;;;40.60;;
14876;SDS011;22152;48.158;17.118;2023-02-15T09:57:01;79.38;;;40.65;;
14876;SDS011;22152;48.158;17.118;2023-02-15T09:59:36;69.55;;;39.00;;
14876;SDS011;22152;48.158;17.118;2023-02-15T10:05:25;51.58;;;30.92;;
14876;SDS011;22152;48.158;17.118;2023-02-15T10:16:48;58.05;;;32.80;;
14876;SDS011;22152;48.158;17.118;2023-02-15T10:31:55;61.97;;;33.95;;
14876;SDS011;22152;48.158;17.118;2023-02-15T10:34:47;48.53;;;27.70;;
14876;SDS011;22152;48.158;17.118;2023-02-15T10:40:36;46.50;;;26.15;;
14876;SDS011;22152;48.158;17.118;2023-02-15T11:00:13;49.80;;;31.05;;
14876;SDS011;22152;48.158;17.118;2023-02-15T11:06:14;55.77;;;30.17;;
14876;SDS011;22152;48.158;17.118;2023-02-15T11:08:49;50.95;;;29.60;;
14876;SDS011;22152;48.158;17.118;2023-02-15T11:11:29;52.05;;;29.02;;
14876;SDS011;22152;48.158;17.118;2023-02-15T11:16:43;46.63;;;29.13;;
14876;SDS011;22152;48.158;17.118;2023-02-15T11:19:24;58.50;;;31.33;;
14876;SDS011;22152;48.158;17.118;2023-02-15T11:22:06;53.53;;;32.90;;
14876;SDS011;22152;48.158;17.118;2023-02-15T11:24:42;53.05;;;31.50;;
14876;SDS011;22152;48.158;17.118;2023-02-15T11:29:41;49.92;;;32.03;;
14876;SDS011;22152;48.158;17.118;2023-02-15T11:32:27;56.30;;;31.30;;
14876;SDS011;22152;48.158;17.118;2023-02-15T11:40:44;63.95;;;38.35;;
14876;SDS011;22152;48.158;17.118;2023-02-15T11:43:20;61.47;;;36.70;;
14876;SDS011;22152;48.158;17.118;2023-02-15T11:45:56;67.05;;;39.42;;
14876;SDS011;22152;48.158;17.118;2023-02-15T11:48:22;101.63;;;40.00;;
14876;SDS011;22152;48.158;17.118;2023-02-15T11:50:49;60.67;;;36.55;;
14876;SDS011;22152;48.158;17.118;2023-02-15T11:53:16;64.40;;;36.83;;
14876;SDS011;22152;48.158;17.118;2023-02-15T11:55:53;61.00;;;37.05;;
14876;SDS011;22152;48.158;17.118;2023-02-15T12:01:14;59.60;;;36.53;;
14876;SDS011;22152;48.158;17.118;2023-02-15T12:03:50;62.58;;;35.92;;
14876;SDS011;22152;48.158;17.118;2023-02-15T12:06:33;59.20;;;37.00;;
14876;SDS011;22152;48.158;17.118;2023-02-15T12:09:17;59.78;;;36.22;;
14876;SDS011;22152;48.158;17.118;2023-02-15T12:12:21;56.85;;;36.65;;
14876;SDS011;22152;48.158;17.118;2023-02-15T12:14:58;62.53;;;37.10;;
14876;SDS011;22152;48.158;17.118;2023-02-15T12:17:32;60.38;;;37.90;;
14876;SDS011;22152;48.158;17.118;2023-02-15T12:22:41;55.47;;;34.33;;
14876;SDS011;22152;48.158;17.118;2023-02-15T12:25:23;60.42;;;35.13;;
14876;SDS011;22152;48.158;17.118;2023-02-15T12:27:57;73.68;;;41.30;;
14876;SDS011;22152;48.158;17.118;2023-02-15T12:33:15;63.42;;;37.65;;
14876;SDS011;22152;48.158;17.118;2023-02-15T12:35:54;70.35;;;39.53;;
14876;SDS011;22152;48.158;17.118;2023-02-15T12:38:29;71.07;;;39.97;;
14876;SDS011;22152;48.158;17.118;2023-02-15T12:41:02;69.35;;;41.00;;
14876;SDS011;22152;48.158;17.118;2023-02-15T12:43:40;67.18;;;42.17;;
14876;SDS011;22152;48.158;17.118;2023-02-15T12:49:17;63.88;;;38.70;;
14876;SDS011;22152;48.158;17.118;2023-02-15T12:51:46;73.07;;;40.55;;
14876;SDS011;22152;48.158;17.118;2023-02-15T12:56:49;70.65;;;40.30;;
14876;SDS011;22152;48.158;17.118;2023-02-15T12:59:16;67.47;;;39.80;;
14876;SDS011;22152;48.158;17.118;2023-02-15T13:01:47;72.03;;;42.60;;
14876;SDS011;22152;48.158;17.118;2023-02-15T13:04:27;72.72;;;42.63;;
14876;SDS011;22152;48.158;17.118;2023-02-15T13:06:56;70.75;;;41.35;;
14876;SDS011;22152;48.158;17.118;2023-02-15T13:11:56;65.63;;;37.70;;
14876;SDS011;22152;48.158;17.118;2023-02-15T13:15:01;79.03;;;39.55;;
14876;SDS011;22152;48.158;17.118;2023-02-15T13:17:49;71.10;;;42.88;;
14876;SDS011;22152;48.158;17.118;2023-02-15T13:20:18;71.20;;;38.15;;
14876;SDS011;22152;48.158;17.118;2023-02-15T13:22:57;68.65;;;38.72;;
14876;SDS011;22152;48.158;17.118;2023-02-15T13:25:30;69.53;;;38.42;;
14876;SDS011;22152;48.158;17.118;2023-02-15T13:28:05;68.43;;;37.63;;
14876;SDS011;22152;48.158;17.118;2023-02-15T13:30:42;74.80;;;38.20;;
14876;SDS011;22152;48.158;17.118;2023-02-15T13:33:21;66.03;;;37.63;;
14876;SDS011;22152;48.158;17.118;2023-02-15T13:35:59;72.05;;;39.63;;
14876;SDS011;22152;48.158;17.118;2023-02-15T13:38:49;74.97;;;40.85;;
14876;SDS011;22152;48.158;17.118;2023-02-15T13:41:41;75.03;;;40.88;;
14876;SDS011;22152;48.158;17.118;2023-02-15T13:44:17;70.18;;;39.42;;
14876;SDS011;22152;48.158;17.118;2023-02-15T13:47:21;73.35;;;42.67;;
14876;SDS011;22152;48.158;17.118;2023-02-15T13:59:36;73.32;;;41.65;;
14876;SDS011;22152;48.158;17.118;2023-02-15T14:08:01;74.75;;;43.25;;
14876;SDS011;22152;48.158;17.118;2023-02-15T14:16:53;78.25;;;42.97;;
14876;SDS011;22152;48.158;17.118;2023-02-15T14:20:03;72.07;;;42.50;;
14876;SDS011;22152;48.158;17.118;2023-02-15T14:23:23;81.60;;;43.60;;
14876;SDS011;22152;48.158;17.118;2023-02-15T14:26:48;83.03;;;45.72;;
14876;SDS011;22152;48.158;17.118;2023-02-15T14:29:27;74.13;;;42.83;;
14876;SDS011;22152;48.158;17.118;2023-02-15T14:32:14;80.72;;;45.85;;
14876;SDS011;22152;48.158;17.118;2023-02-15T14:34:50;72.30;;;41.90;;
14876;SDS011;22152;48.158;17.118;2023-02-15T14:37:27;70.22;;;41.28;;
14876;SDS011;22152;48.158;17.118;2023-02-15T14:40:01;77.38;;;43.83;;
14876;SDS011;22152;48.158;17.118;2023-02-15T14:42:58;79.72;;;44.33;;
14876;SDS011;22152;48.158;17.118;2023-02-15T14:48:11;84.75;;;44.63;;
14876;SDS011;22152;48.158;17.118;2023-02-15T14:50:47;79.35;;;45.05;;
14876;SDS011;22152;48.158;17.118;2023-02-15T14:53:22;73.30;;;43.72;;
14876;SDS011;22152;48.158;17.118;2023-02-15T14:58:56;79.32;;;42.15;;
14876;SDS011;22152;48.158;17.118;2023-02-15T15:01:27;69.40;;;37.70;;
14876;SDS011;22152;48.158;17.118;2023-02-15T15:04:03;77.07;;;42.88;;
14876;SDS011;22152;48.158;17.118;2023-02-15T15:06:40;68.20;;;38.67;;
14876;SDS011;22152;48.158;17.118;2023-02-15T15:09:20;68.07;;;35.83;;
14876;SDS011;22152;48.158;17.118;2023-02-15T15:11:51;70.35;;;38.38;;
14876;SDS011;22152;48.158;17.118;2023-02-15T15:16:57;67.85;;;38.42;;
14876;SDS011;22152;48.158;17.118;2023-02-15T15:22:19;71.85;;;37.70;;
14876;SDS011;22152;48.158;17.118;2023-02-15T15:24:57;66.35;;;37.55;;
14876;SDS011;22152;48.158;17.118;2023-02-15T15:49:57;68.05;;;36.60;;
14876;SDS011;22152;48.158;17.118;2023-02-15T15:52:24;69.35;;;39.15;;
14876;SDS011;22152;48.158;17.118;2023-02-15T15:54:52;78.85;;;41.53;;
14876;SDS011;22152;48.158;17.118;2023-02-15T15:57:27;70.93;;;40.40;;
14876;SDS011;22152;48.158;17.118;2023-02-15T15:59:57;73.32;;;39.95;;
14876;SDS011;22152;48.158;17.118;2023-02-15T16:02:27;73.93;;;39.53;;
14876;SDS011;22152;48.158;17.118;2023-02-15T16:04:53;63.65;;;37.05;;
14876;SDS011;22152;48.158;17.118;2023-02-15T16:09:54;73.65;;;38.92;;
14876;SDS011;22152;48.158;17.118;2023-02-15T16:12:20;75.20;;;40.95;;
14876;SDS011;22152;48.158;17.118;2023-02-15T16:14:47;78.72;;;42.63;;
14876;SDS011;22152;48.158;17.118;2023-02-15T16:17:24;79.43;;;43.50;;
14876;SDS011;22152;48.158;17.118;2023-02-15T16:20:04;77.47;;;42.00;;
14876;SDS011;22152;48.158;17.118;2023-02-15T16:22:37;87.90;;;43.85;;
14876;SDS011;22152;48.158;17.118;2023-02-15T16:28:23;87.72;;;44.78;;
14876;SDS011;22152;48.158;17.118;2023-02-15T16:31:06;83.50;;;41.47;;
14876;SDS011;22152;48.158;17.118;2023-02-15T16:33:38;78.82;;;41.63;;
14876;SDS011;22152;48.158;17.118;2023-02-15T16:36:06;90.35;;;46.33;;
14876;SDS011;22152;48.158;17.118;2023-02-15T16:41:15;89.47;;;43.97;;
14876;SDS011;22152;48.158;17.118;2023-02-15T16:43:49;93.95;;;46.80;;
14876;SDS011;22152;48.158;17.118;2023-02-15T16:46:25;94.03;;;45.65;;
14876;SDS011;22152;48.158;17.118;2023-02-15T16:49:02;92.47;;;44.83;;
14876;SDS011;22152;48.158;17.118;2023-02-15T16:51:39;87.60;;;43.33;;
14876;SDS011;22152;48.158;17.118;2023-02-15T16:54:15;92.97;;;44.47;;
14876;SDS011;22152;48.158;17.118;2023-02-15T16:56:45;92.28;;;44.70;;
14876;SDS011;22152;48.158;17.118;2023-02-15T16:59:31;102.32;;;48.28;;
14876;SDS011;22152;48.158;17.118;2023-02-15T17:07:50;113.05;;;48.28;;
14876;SDS011;22152;48.158;17.118;2023-02-15T17:10:29;125.45;;;52.97;;
14876;SDS011;22152;48.158;17.118;2023-02-15T17:13:01;119.53;;;50.05;;
14876;SDS011;22152;48.158;17.118;2023-02-15T17:21:13;126.30;;;51.10;;
14876;SDS011;22152;48.158;17.118;2023-02-15T17:23:51;123.15;;;52.47;;
14876;SDS011;22152;48.158;17.118;2023-02-15T17:26:24;116.63;;;49.47;;
14876;SDS011;22152;48.158;17.118;2023-02-15T17:29:19;139.93;;;56.15;;
14876;SDS011;22152;48.158;17.118;2023-02-15T17:32:14;124.00;;;52.63;;
14876;SDS011;22152;48.158;17.118;2023-02-15T17:39:58;140.23;;;55.85;;
14876;SDS011;22152;48.158;17.118;2023-02-15T17:42:27;135.27;;;53.75;;
14876;SDS011;22152;48.158;17.118;2023-02-15T17:44:53;154.15;;;62.10;;
14876;SDS011;22152;48.158;17.118;2023-02-15T17:47:20;143.55;;;59.38;;
14876;SDS011;22152;48.158;17.118;2023-02-15T17:49:49;152.77;;;57.20;;
14876;SDS011;22152;48.158;17.118;2023-02-15T17:52:16;155.45;;;58.85;;
14876;SDS011;22152;48.158;17.118;2023-02-15T17:54:42;153.70;;;62.70;;
14876;SDS011;22152;48.158;17.118;2023-02-15T17:57:28;152.77;;;58.67;;
14876;SDS011;22152;48.158;17.118;2023-02-15T17:59:55;157.60;;;58.35;;
14876;SDS011;22152;48.158;17.118;2023-02-15T18:02:40;157.30;;;60.47;;
14876;SDS011;22152;48.158;17.118;2023-02-15T18:05:25;159.43;;;60.85;;
14876;SDS011;22152;48.158;17.118;2023-02-15T18:08:10;181.30;;;61.55;;